Terminal Aerodrome Forecast
Issued by NWS

Home | Current Version | Previous Version | Text Only | Print | Product List | Glossary On
Versions: 1 2 3 4 5 6 7 8 9 10 11 12 13 14 15
000
FTAK31 PAJN 181136
TAFAWG
TAF
PAWG 181136Z 1812/1912 12003KT P6SM -RA BKN040 OVC060
     FM181600 12012KT 4SM -RA BR BKN025 OVC040
     FM182100 12012G22KT 4SM -RA BR BKN015 OVC025 WS020/13035KT
     FM190300 12012KT 6SM -SHRA BR SCT015 BKN035 OVC050
      WS020/14035KT
     FM190900 14006KT 4SM -SHRA BR BKN007 OVC015
      AMD LTD TO CLD VIS AND WIND 1812/1815=

USA.gov is the U.S. government's official web portal to all federal, state and local government web resources and services.